Time;durP1;ratioP1;P1;durP2;ratioP2;P2;SDS_P1;SDS_P2;PMS_P1;PMS_P2;Temp;Humidity;BMP_temperature;BMP_pressure;BME280_temperature;BME280_humidity;BME280_pressure;Samples;Min_cycle;Max_cycle;Signal;HPM_P1;HPM_P2
2023/03/12 00:02:00;;;;;;;6.43;2.60;;;1.80;99.90;;;;;;6244748;23;20012;-87
2023/03/12 00:04:26;;;;;;;4.63;2.60;;;1.70;99.90;;;;;;6243067;23;20394;-87
2023/03/12 00:06:52;;;;;;;6.15;3.00;;;1.70;99.90;;;;;;6246247;23;20023;-88
2023/03/12 00:09:18;;;;;;;5.03;2.45;;;1.70;99.90;;;;;;6243763;23;20094;-87
2023/03/12 00:11:44;;;;;;;5.30;2.70;;;1.70;99.90;;;;;;6243318;23;20340;-87
2023/03/12 00:14:09;;;;;;;5.68;2.35;;;1.70;99.90;;;;;;6246120;23;20012;-87
2023/03/12 00:16:35;;;;;;;7.47;2.80;;;1.70;99.90;;;;;;6243623;23;20032;-87
2023/03/12 00:19:01;;;;;;;6.75;3.08;;;1.70;99.90;;;;;;6243133;23;20058;-87
2023/03/12 00:21:26;;;;;;;5.43;2.58;;;1.70;99.90;;;;;;6246140;23;20023;-88
2023/03/12 00:23:52;;;;;;;6.88;3.03;;;1.60;99.90;;;;;;6244171;23;20020;-85
2023/03/12 00:26:20;;;;;;;5.53;2.78;;;1.60;99.90;;;;;;6245565;23;20012;-85
2023/03/12 00:28:47;;;;;;;5.90;2.67;;;1.60;99.90;;;;;;6246209;22;20095;-85
2023/03/12 00:31:28;;;;;;;5.30;2.90;;;1.60;99.90;;;;;;6244497;22;20016;-85
2023/03/12 00:33:55;;;;;;;6.70;3.13;;;1.60;99.90;;;;;;6244185;23;20062;-85
2023/03/12 00:36:25;;;;;;;5.65;2.90;;;1.60;99.90;;;;;;6244033;23;20016;-85
2023/03/12 00:38:51;;;;;;;5.95;3.08;;;1.60;99.90;;;;;;6244764;22;20027;-85
2023/03/12 00:41:18;;;;;;;7.45;3.13;;;1.50;99.90;;;;;;6244080;23;20016;-85
2023/03/12 00:43:48;;;;;;;5.35;2.70;;;1.50;99.90;;;;;;6246170;22;20044;-86
2023/03/12 00:46:14;;;;;;;8.98;2.78;;;1.50;99.90;;;;;;6245162;22;20016;-84
2023/03/12 00:48:40;;;;;;;7.90;3.03;;;1.50;99.90;;;;;;6244031;23;20113;-85
2023/03/12 00:51:06;;;;;;;7.35;3.10;;;1.50;99.90;;;;;;6244298;23;20020;-85
2023/03/12 00:53:32;;;;;;;7.15;3.03;;;1.50;99.90;;;;;;6243128;23;20016;-85
2023/03/12 00:55:57;;;;;;;5.60;3.05;;;1.40;99.90;;;;;;6244136;23;20433;-85
2023/03/12 00:58:23;;;;;;;7.40;3.15;;;1.50;99.90;;;;;;6243575;23;20024;-84
2023/03/12 01:00:48;;;;;;;8.50;3.15;;;1.50;99.90;;;;;;6242909;23;20102;-85
2023/03/12 01:03:15;;;;;;;6.70;2.97;;;1.40;99.90;;;;;;6245774;23;20361;-85
2023/03/12 01:05:40;;;;;;;6.93;3.53;;;1.40;99.90;;;;;;6245720;23;20012;-85
2023/03/12 01:08:07;;;;;;;5.60;3.30;;;1.40;99.90;;;;;;6243287;23;20096;-85
2023/03/12 01:10:34;;;;;;;6.18;2.70;;;1.40;99.90;;;;;;6243163;23;20019;-85
2023/03/12 01:12:59;;;;;;;7.35;3.30;;;1.40;99.90;;;;;;6243684;23;20016;-85
2023/03/12 01:15:26;;;;;;;6.95;3.30;;;1.40;99.90;;;;;;6242621;23;20023;-85
2023/03/12 01:17:51;;;;;;;5.25;2.92;;;1.30;99.90;;;;;;6244114;23;20344;-85
2023/03/12 01:20:17;;;;;;;5.53;2.97;;;1.30;99.90;;;;;;6242672;23;20012;-85
2023/03/12 01:22:43;;;;;;;7.00;3.35;;;1.30;99.90;;;;;;6245920;23;20016;-85
2023/03/12 01:25:09;;;;;;;6.05;2.80;;;1.30;99.90;;;;;;6243792;23;20022;-85
2023/03/12 01:27:35;;;;;;;6.38;3.30;;;1.30;99.90;;;;;;6243336;23;20095;-86
2023/03/12 01:30:01;;;;;;;6.57;3.08;;;1.30;99.90;;;;;;6247847;22;20066;-86
2023/03/12 01:32:27;;;;;;;7.32;3.50;;;1.20;99.90;;;;;;6247167;22;20468;-86
2023/03/12 01:34:53;;;;;;;6.03;3.20;;;1.20;99.90;;;;;;6247027;23;20016;-86
2023/03/12 01:37:18;;;;;;;7.32;3.50;;;1.20;99.90;;;;;;6245845;23;20022;-86
2023/03/12 01:39:44;;;;;;;6.13;3.10;;;1.20;99.90;;;;;;6245670;23;20017;-86
2023/03/12 01:42:09;;;;;;;5.43;3.17;;;1.20;99.90;;;;;;6244695;23;20070;-86
2023/03/12 01:44:55;;;;;;;7.35;3.38;;;1.10;99.90;;;;;;6245738;23;20016;-86
2023/03/12 01:47:21;;;;;;;7.70;3.58;;;1.20;99.90;;;;;;6245485;23;20012;-86
2023/03/12 01:49:49;;;;;;;7.15;3.22;;;1.10;99.90;;;;;;6246545;22;20019;-86
2023/03/12 01:52:20;;;;;;;6.93;3.15;;;1.10;99.90;;;;;;6245252;23;20077;-86
2023/03/12 01:54:57;;;;;;;6.93;3.30;;;1.10;99.90;;;;;;6247263;23;20405;-86
2023/03/12 01:57:29;;;;;;;6.53;3.70;;;1.10;99.90;;;;;;6244459;23;20062;-86
2023/03/12 02:00:07;;;;;;;7.30;3.58;;;1.10;99.90;;;;;;6247452;22;20472;-86
2023/03/12 02:02:35;;;;;;;6.22;3.42;;;1.10;99.90;;;;;;6244658;23;20016;-86
2023/03/12 02:05:06;;;;;;;6.35;3.35;;;1.10;99.90;;;;;;6245470;23;20056;-86
2023/03/12 02:07:33;;;;;;;6.18;3.60;;;1.10;99.90;;;;;;6247581;23;20016;-87
2023/03/12 02:09:59;;;;;;;6.68;3.58;;;1.10;99.90;;;;;;6246243;22;20012;-86
2023/03/12 02:12:25;;;;;;;6.50;3.60;;;1.10;99.90;;;;;;6244937;23;20017;-86
2023/03/12 02:14:50;;;;;;;6.35;4.00;;;1.10;99.90;;;;;;6245877;23;20008;-86
2023/03/12 02:17:16;;;;;;;7.80;3.60;;;1.10;99.90;;;;;;6245900;23;20046;-87
2023/03/12 02:20:08;;;;;;;6.22;3.58;;;1.10;99.90;;;;;;6247669;23;20012;-87
2023/03/12 02:22:35;;;;;;;7.50;3.97;;;1.10;99.90;;;;;;6245279;23;20024;-86
2023/03/12 02:25:38;;;;;;;7.53;3.88;;;1.00;99.90;;;;;;6244375;23;20016;-87
2023/03/12 02:28:07;;;;;;;8.88;3.90;;;1.00;99.90;;;;;;6211702;23;20329;-87
2023/03/12 02:30:34;;;;;;;9.88;4.03;;;1.10;99.90;;;;;;6246208;22;20093;-86
2023/03/12 02:33:04;;;;;;;7.63;3.83;;;1.10;99.90;;;;;;6245300;23;20020;-87
2023/03/12 02:35:30;;;;;;;7.45;3.90;;;1.10;99.90;;;;;;6247003;22;20016;-87
2023/03/12 02:37:56;;;;;;;7.68;3.70;;;1.10;99.90;;;;;;6244615;23;20337;-87
2023/03/12 02:40:21;;;;;;;7.40;3.65;;;1.10;99.90;;;;;;6244267;23;20012;-86
2023/03/12 02:42:47;;;;;;;6.25;3.33;;;1.10;99.90;;;;;;6247333;23;20099;-87
2023/03/12 02:45:13;;;;;;;8.80;3.60;;;1.10;99.90;;;;;;6243805;23;20016;-87
2023/03/12 02:47:38;;;;;;;6.88;3.47;;;1.10;99.90;;;;;;6245388;23;20027;-87
2023/03/12 02:50:05;;;;;;;5.53;3.42;;;1.10;99.90;;;;;;6245285;23;20015;-87
2023/03/12 02:52:34;;;;;;;6.93;3.45;;;1.10;99.90;;;;;;6245497;22;20024;-87
2023/03/12 02:55:00;;;;;;;6.90;3.80;;;1.10;99.90;;;;;;6245092;23;20012;-87
2023/03/12 02:57:26;;;;;;;7.43;3.53;;;1.20;99.90;;;;;;6244896;23;20016;-87
2023/03/12 02:59:51;;;;;;;8.07;3.25;;;1.20;99.90;;;;;;6246276;22;20369;-87
2023/03/12 03:02:17;;;;;;;9.57;3.58;;;1.20;99.90;;;;;;6246247;23;20444;-87
2023/03/12 03:04:43;;;;;;;7.88;3.60;;;1.20;99.90;;;;;;6246928;23;20020;-87
2023/03/12 03:07:08;;;;;;;6.85;3.63;;;1.20;99.90;;;;;;6246116;23;20020;-87
2023/03/12 03:09:34;;;;;;;7.55;3.63;;;1.20;99.90;;;;;;6246780;22;20452;-87
2023/03/12 03:12:00;;;;;;;5.60;3.53;;;1.20;99.90;;;;;;6244885;23;20027;-87
2023/03/12 03:14:25;;;;;;;6.88;3.83;;;1.20;99.90;;;;;;6245795;23;20008;-87
2023/03/12 03:16:51;;;;;;;8.02;4.40;;;1.20;99.90;;;;;;6245507;23;20020;-87
2023/03/12 03:19:17;;;;;;;8.45;4.07;;;1.20;99.90;;;;;;6246522;23;20321;-87
2023/03/12 03:21:42;;;;;;;7.57;3.75;;;1.20;99.90;;;;;;6244073;23;20085;-87
2023/03/12 03:24:08;;;;;;;8.05;4.05;;;1.20;99.90;;;;;;6244885;23;20364;-87
2023/03/12 03:26:34;;;;;;;10.68;4.28;;;1.20;99.90;;;;;;6246375;23;20035;-87
2023/03/12 03:29:00;;;;;;;7.18;3.38;;;1.20;99.90;;;;;;6246084;22;20340;-86
2023/03/12 03:31:25;;;;;;;8.73;4.00;;;1.20;99.90;;;;;;6244376;23;20475;-87
2023/03/12 03:33:51;;;;;;;7.78;3.88;;;1.20;99.90;;;;;;6244122;23;20012;-86
2023/03/12 03:36:18;;;;;;;5.82;3.75;;;1.20;99.90;;;;;;6244678;23;20086;-87
2023/03/12 03:38:48;;;;;;;10.27;4.15;;;1.20;99.90;;;;;;6246161;22;20516;-87
2023/03/12 03:41:15;;;;;;;7.63;3.90;;;1.20;99.90;;;;;;6245147;22;20330;-87
2023/03/12 03:43:41;;;;;;;7.70;4.00;;;1.20;99.90;;;;;;6244895;23;20508;-88
2023/03/12 03:46:06;;;;;;;7.97;4.10;;;1.20;99.90;;;;;;6246672;23;20077;-87
2023/03/12 03:48:32;;;;;;;9.05;3.90;;;1.20;99.90;;;;;;6243577;23;20048;-88
2023/03/12 03:51:02;;;;;;;7.13;3.50;;;1.20;99.90;;;;;;6243949;23;20024;-87
2023/03/12 03:53:28;;;;;;;7.50;4.22;;;1.20;99.90;;;;;;6244070;23;20404;-87
2023/03/12 03:55:54;;;;;;;8.63;4.18;;;1.20;99.90;;;;;;6243844;23;20066;-88
2023/03/12 03:58:20;;;;;;;8.35;3.97;;;1.20;99.90;;;;;;6246098;23;20016;-87
2023/03/12 04:00:45;;;;;;;8.80;3.63;;;1.20;99.90;;;;;;6246675;23;20438;-87
2023/03/12 04:03:12;;;;;;;8.45;3.90;;;1.20;99.90;;;;;;6243440;23;20332;-87
2023/03/12 04:05:38;;;;;;;9.25;3.67;;;1.20;99.90;;;;;;6246411;22;20039;-87
2023/03/12 04:08:05;;;;;;;9.43;4.13;;;1.20;99.90;;;;;;6244650;23;20016;-87
2023/03/12 04:10:30;;;;;;;7.68;3.85;;;1.20;99.90;;;;;;6243015;23;20525;-87
2023/03/12 04:12:56;;;;;;;10.07;4.13;;;1.30;99.90;;;;;;6244322;23;20020;-87
2023/03/12 04:15:23;;;;;;;7.78;4.28;;;1.30;99.90;;;;;;6246194;22;20008;-88
2023/03/12 04:17:48;;;;;;;6.28;3.55;;;1.30;99.90;;;;;;6243933;23;20016;-87
2023/03/12 04:20:14;;;;;;;7.50;4.07;;;1.30;99.90;;;;;;6244169;23;20020;-87
2023/03/12 04:22:40;;;;;;;10.05;4.25;;;1.30;99.90;;;;;;6244256;23;20499;-87
2023/03/12 04:25:06;;;;;;;8.02;4.20;;;1.30;99.90;;;;;;6243565;23;20039;-87
2023/03/12 04:27:33;;;;;;;11.13;4.00;;;1.30;99.90;;;;;;6244017;23;20070;-87
2023/03/12 04:29:58;;;;;;;8.27;3.90;;;1.30;99.90;;;;;;6246405;22;20004;-88
2023/03/12 04:32:24;;;;;;;9.60;4.00;;;1.30;99.90;;;;;;6242594;23;20506;-88
2023/03/12 04:34:49;;;;;;;10.70;4.38;;;1.30;99.90;;;;;;6244471;23;20012;-87
2023/03/12 04:37:15;;;;;;;7.75;3.95;;;1.30;99.90;;;;;;6243033;23;20012;-87
2023/03/12 04:39:42;;;;;;;8.68;4.30;;;1.30;99.90;;;;;;6246026;22;20016;-87
2023/03/12 04:42:09;;;;;;;7.57;4.38;;;1.30;99.90;;;;;;6244356;23;20016;-87
2023/03/12 04:44:35;;;;;;;11.52;4.20;;;1.30;99.90;;;;;;6243398;23;20372;-87
2023/03/12 04:47:01;;;;;;;8.15;4.10;;;1.30;99.90;;;;;;6244263;23;20020;-87
2023/03/12 04:49:27;;;;;;;7.75;4.38;;;1.30;99.90;;;;;;6245260;23;20086;-87
2023/03/12 04:51:53;;;;;;;10.05;4.03;;;1.30;99.90;;;;;;6243265;23;20056;-87
2023/03/12 04:54:19;;;;;;;7.22;4.03;;;1.40;99.90;;;;;;6245661;22;20019;-87
2023/03/12 04:56:46;;;;;;;7.97;3.80;;;1.30;99.90;;;;;;6246138;22;20073;-87
2023/03/12 04:59:12;;;;;;;9.25;4.20;;;1.30;99.90;;;;;;6243470;23;20519;-88
2023/03/12 05:01:38;;;;;;;9.73;4.30;;;1.30;99.90;;;;;;6245833;22;20008;-88
2023/03/12 05:04:04;;;;;;;8.05;4.10;;;1.30;99.90;;;;;;6218537;23;20722;-87
2023/03/12 05:06:31;;;;;;;9.05;4.20;;;1.30;99.90;;;;;;6242964;23;20471;-88
2023/03/12 05:08:56;;;;;;;9.23;4.00;;;1.30;99.90;;;;;;6243878;23;20048;-88
2023/03/12 05:11:23;;;;;;;7.28;3.95;;;1.40;99.90;;;;;;6242348;23;20070;-87
2023/03/12 05:13:48;;;;;;;7.32;4.05;;;1.40;99.90;;;;;;6245598;22;20027;-87
2023/03/12 05:16:14;;;;;;;9.73;4.57;;;1.40;99.90;;;;;;6245663;23;20092;-88
2023/03/12 05:18:41;;;;;;;8.05;4.22;;;1.40;99.90;;;;;;6244079;23;20021;-88
2023/03/12 05:21:10;;;;;;;11.32;4.28;;;1.40;99.90;;;;;;6243068;23;20015;-88
2023/03/12 05:23:38;;;;;;;7.15;4.20;;;1.40;99.90;;;;;;6245715;22;20020;-87
2023/03/12 05:26:05;;;;;;;7.93;4.32;;;1.40;99.90;;;;;;6242416;23;20110;-87
2023/03/12 05:28:31;;;;;;;10.30;4.45;;;1.40;99.90;;;;;;6241382;23;20031;-87
2023/03/12 05:30:58;;;;;;;7.82;4.25;;;1.40;99.90;;;;;;6245702;22;20054;-88
2023/03/12 05:33:24;;;;;;;11.23;4.40;;;1.40;99.90;;;;;;6242484;23;20024;-86
2023/03/12 05:35:50;;;;;;;8.68;4.28;;;1.40;99.90;;;;;;6243941;23;20019;-90
2023/03/12 05:38:16;;;;;;;8.00;3.97;;;1.40;99.90;;;;;;6244233;23;20051;-90
2023/03/12 05:40:41;;;;;;;7.53;3.70;;;1.40;99.90;;;;;;6243594;23;20023;-90
2023/03/12 05:43:07;;;;;;;7.88;4.30;;;1.50;99.90;;;;;;6244129;23;20012;-89
2023/03/12 05:45:33;;;;;;;8.98;4.40;;;1.50;99.90;;;;;;6245422;23;20436;-89
2023/03/12 05:47:59;;;;;;;9.63;4.35;;;1.50;99.90;;;;;;6242608;23;20391;-85
2023/03/12 05:50:25;;;;;;;11.05;4.25;;;1.50;99.90;;;;;;6243822;23;20020;-89
2023/03/12 05:52:51;;;;;;;10.18;4.22;;;1.50;99.90;;;;;;6243716;23;20020;-88
2023/03/12 05:55:17;;;;;;;11.10;4.65;;;1.50;99.90;;;;;;6242250;23;20012;-87
2023/03/12 05:57:43;;;;;;;10.88;4.40;;;1.50;99.90;;;;;;6245462;22;20043;-88
2023/03/12 06:00:12;;;;;;;10.13;4.20;;;1.50;99.90;;;;;;6243923;23;20111;-88
2023/03/12 06:02:37;;;;;;;7.63;4.43;;;1.50;99.90;;;;;;6243439;23;20139;-87
2023/03/12 06:05:03;;;;;;;9.02;4.40;;;1.50;99.90;;;;;;6241933;23;20044;-88
2023/03/12 06:07:29;;;;;;;11.40;4.60;;;1.50;99.90;;;;;;6243628;22;20052;-87
2023/03/12 06:09:55;;;;;;;10.18;4.57;;;1.50;99.90;;;;;;6240963;23;20023;-87
2023/03/12 06:12:20;;;;;;;9.98;4.22;;;1.50;99.90;;;;;;6244053;23;20336;-88
2023/03/12 06:14:46;;;;;;;11.35;4.05;;;1.50;99.90;;;;;;6243167;23;20644;-87
2023/03/12 06:17:12;;;;;;;10.02;4.20;;;1.60;99.90;;;;;;6244917;23;20023;-88
2023/03/12 06:19:37;;;;;;;9.57;4.50;;;1.60;99.90;;;;;;6245607;23;20013;-88
2023/03/12 06:22:04;;;;;;;10.85;4.70;;;1.60;99.90;;;;;;6215359;23;20036;-88
2023/03/12 06:24:30;;;;;;;7.68;4.43;;;1.60;99.90;;;;;;6215696;23;20017;-90
2023/03/12 06:26:55;;;;;;;8.10;4.35;;;1.60;99.90;;;;;;6215043;23;20092;-88
2023/03/12 06:29:21;;;;;;;8.43;4.13;;;1.60;99.90;;;;;;6215119;23;20021;-89
2023/03/12 06:31:47;;;;;;;8.15;4.25;;;1.60;99.90;;;;;;6214466;23;20118;-88
2023/03/12 06:34:13;;;;;;;10.48;4.72;;;1.60;99.90;;;;;;6215786;23;20017;-88
2023/03/12 06:36:38;;;;;;;10.88;4.85;;;1.60;99.90;;;;;;6213621;23;20087;-89
2023/03/12 06:39:05;;;;;;;9.05;4.30;;;1.60;99.90;;;;;;6212636;23;20052;-87
2023/03/12 06:41:31;;;;;;;9.30;4.63;;;1.60;99.90;;;;;;6213450;23;20012;-88
2023/03/12 06:43:57;;;;;;;9.85;4.50;;;1.70;99.90;;;;;;6213021;23;20031;-88
2023/03/12 06:46:24;;;;;;;8.40;4.22;;;1.70;99.90;;;;;;6213467;23;20025;-88
2023/03/12 06:48:50;;;;;;;8.90;4.40;;;1.70;99.90;;;;;;6215642;23;20013;-87
2023/03/12 06:51:17;;;;;;;10.77;4.90;;;1.70;99.90;;;;;;6212228;23;20379;-88
2023/03/12 06:53:44;;;;;;;10.20;4.35;;;1.70;99.90;;;;;;6213364;23;20345;-88
2023/03/12 06:56:10;;;;;;;14.35;4.95;;;1.70;99.90;;;;;;6213421;23;20020;-88
2023/03/12 06:58:36;;;;;;;10.25;4.45;;;1.70;99.90;;;;;;6212651;23;20016;-89
2023/03/12 07:01:02;;;;;;;9.73;4.85;;;1.70;99.90;;;;;;6215469;23;20463;-88
2023/03/12 07:03:28;;;;;;;8.43;4.80;;;1.80;99.90;;;;;;6213115;23;20019;-89
2023/03/12 07:05:55;;;;;;;11.13;5.15;;;1.80;99.90;;;;;;6214828;23;20437;-88
2023/03/12 07:08:22;;;;;;;10.18;5.25;;;1.80;99.90;;;;;;6213437;23;20013;-89
2023/03/12 07:10:47;;;;;;;9.63;5.10;;;1.80;99.90;;;;;;6214742;23;20337;-89
2023/03/12 07:13:13;;;;;;;10.40;4.97;;;1.80;99.90;;;;;;6215356;23;20027;-90
2023/03/12 07:15:39;;;;;;;13.70;6.53;;;1.80;99.90;;;;;;6215547;23;20009;-91
2023/03/12 07:18:10;;;;;;;8.60;4.82;;;1.80;99.90;;;;;;6214824;23;20326;-90
2023/03/12 07:20:38;;;;;;;7.65;4.88;;;1.80;99.90;;;;;;6215664;23;20016;-90
2023/03/12 07:23:04;;;;;;;10.15;5.63;;;1.80;99.90;;;;;;6214528;23;20873;-88
2023/03/12 07:25:30;;;;;;;10.45;5.32;;;1.80;99.90;;;;;;6214042;23;20025;-92
2023/03/12 07:27:55;;;;;;;10.52;5.57;;;1.90;99.90;;;;;;6214508;23;20019;-89
2023/03/12 07:30:21;;;;;;;10.82;5.30;;;1.90;99.90;;;;;;6214487;23;20398;-87
2023/03/12 07:32:47;;;;;;;11.40;5.22;;;1.80;99.90;;;;;;6214596;23;20081;-90
2023/03/12 07:35:13;;;;;;;12.52;5.35;;;1.90;99.90;;;;;;6213305;23;20048;-89
2023/03/12 07:37:39;;;;;;;11.18;5.63;;;1.90;99.90;;;;;;6216393;23;20080;-88
2023/03/12 07:40:06;;;;;;;11.55;5.80;;;1.90;99.90;;;;;;6213966;23;20410;-89
2023/03/12 07:42:32;;;;;;;13.90;5.70;;;1.80;99.90;;;;;;6214538;23;20016;-85
2023/03/12 07:44:58;;;;;;;9.68;5.72;;;1.80;99.90;;;;;;6214913;23;20012;-87
2023/03/12 07:47:24;;;;;;;11.80;6.07;;;1.80;99.90;;;;;;6213391;23;20048;-87
2023/03/12 07:49:50;;;;;;;12.05;5.82;;;1.80;99.90;;;;;;6214823;23;20013;-87
2023/03/12 07:52:17;;;;;;;8.20;5.22;;;1.80;99.90;;;;;;6213986;23;20020;-87
2023/03/12 07:54:42;;;;;;;13.98;5.75;;;1.80;99.90;;;;;;6215412;23;20024;-87
2023/03/12 07:57:08;;;;;;;13.98;5.25;;;1.80;99.90;;;;;;6214714;23;20017;-88
2023/03/12 07:59:34;;;;;;;10.85;5.97;;;1.80;99.90;;;;;;6215706;23;20043;-87
2023/03/12 08:01:59;;;;;;;12.35;5.95;;;1.80;99.90;;;;;;6213609;23;20334;-88
2023/03/12 08:04:25;;;;;;;11.32;5.75;;;1.90;99.90;;;;;;6216213;23;20067;-87
2023/03/12 08:06:50;;;;;;;13.30;6.40;;;1.90;99.90;;;;;;6214451;23;20067;-87
2023/03/12 08:09:16;;;;;;;12.27;5.60;;;1.90;99.90;;;;;;6213673;23;20024;-87
2023/03/12 08:11:42;;;;;;;11.80;5.75;;;1.90;99.90;;;;;;6218906;23;20020;-87
2023/03/12 08:14:07;;;;;;;13.45;5.65;;;1.90;99.90;;;;;;6219301;23;20016;-88
2023/03/12 08:16:33;;;;;;;10.23;5.43;;;1.90;99.90;;;;;;6218340;23;20020;-87
2023/03/12 08:18:59;;;;;;;13.18;5.45;;;1.90;99.90;;;;;;6246302;23;20087;-87
2023/03/12 08:21:25;;;;;;;13.55;5.28;;;1.90;99.90;;;;;;6218878;23;20054;-85
2023/03/12 08:23:50;;;;;;;9.80;5.40;;;1.90;99.90;;;;;;6218604;23;20012;-88
2023/03/12 08:26:16;;;;;;;12.10;5.18;;;1.90;99.90;;;;;;6218527;23;20016;-87
2023/03/12 08:28:42;;;;;;;13.32;5.47;;;1.90;99.90;;;;;;6245868;23;20087;-89
2023/03/12 08:31:08;;;;;;;11.13;5.72;;;1.90;99.90;;;;;;6218802;23;20023;-89
2023/03/12 08:33:34;;;;;;;10.50;5.00;;;1.90;99.90;;;;;;6218741;23;20035;-86
2023/03/12 08:36:00;;;;;;;11.73;5.70;;;1.90;99.90;;;;;;6246254;23;20012;-87
2023/03/12 08:38:26;;;;;;;10.63;5.03;;;1.90;99.90;;;;;;6217415;23;20318;-86
2023/03/12 08:40:59;;;;;;;13.23;5.28;;;1.90;99.90;;;;;;6219109;23;20012;-88
2023/03/12 08:43:26;;;;;;;10.45;5.15;;;1.90;99.90;;;;;;6245125;23;20090;-88
2023/03/12 08:45:57;;;;;;;11.90;5.85;;;1.90;99.90;;;;;;6219357;23;20459;-87
2023/03/12 08:48:23;;;;;;;10.38;5.10;;;1.90;99.90;;;;;;6246141;23;20078;-88
2023/03/12 08:50:49;;;;;;;9.52;5.43;;;1.90;99.90;;;;;;6216991;23;20380;-88
2023/03/12 08:53:15;;;;;;;10.40;5.38;;;1.90;99.90;;;;;;6245994;23;20023;-88
2023/03/12 08:55:41;;;;;;;14.73;5.43;;;1.90;99.90;;;;;;6218524;23;20020;-88
2023/03/12 08:58:06;;;;;;;13.68;5.53;;;1.90;99.90;;;;;;6218459;23;20020;-88
2023/03/12 09:00:32;;;;;;;9.10;5.30;;;1.90;99.90;;;;;;6218826;23;20463;-89
2023/03/12 09:02:57;;;;;;;10.10;5.53;;;1.90;99.90;;;;;;6218876;23;20039;-87
2023/03/12 09:05:25;;;;;;;12.20;5.32;;;2.00;99.90;;;;;;6217727;23;20428;-87
2023/03/12 09:07:50;;;;;;;13.50;5.68;;;2.00;99.90;;;;;;6218590;23;20027;-87
2023/03/12 09:10:16;;;;;;;8.23;4.78;;;2.00;99.90;;;;;;6218490;23;20336;-88
2023/03/12 09:12:43;;;;;;;10.00;4.88;;;2.00;99.90;;;;;;6219318;23;20016;-91
2023/03/12 09:15:09;;;;;;;10.15;4.95;;;2.00;99.90;;;;;;6220032;23;20019;-90
2023/03/12 09:17:37;;;;;;;11.75;5.28;;;2.00;99.90;;;;;;6246307;23;20087;-92
2023/03/12 09:20:07;;;;;;;9.45;5.00;;;2.00;99.90;;;;;;6246360;23;20020;-91
2023/03/12 09:22:35;;;;;;;8.38;4.70;;;2.00;99.90;;;;;;6246589;23;20012;-92
2023/03/12 09:25:02;;;;;;;9.98;5.03;;;2.10;99.90;;;;;;6246726;23;20018;-92
2023/03/12 09:27:28;;;;;;;8.82;4.85;;;2.10;99.90;;;;;;6218754;23;20017;-88
2023/03/12 09:29:54;;;;;;;8.85;4.47;;;2.10;99.90;;;;;;6218807;23;20460;-90
2023/03/12 09:32:19;;;;;;;12.25;4.70;;;2.10;99.90;;;;;;6218640;23;20026;-89
2023/03/12 09:34:45;;;;;;;8.75;4.80;;;2.10;99.90;;;;;;6244991;23;20012;-89
2023/03/12 09:37:11;;;;;;;12.88;4.95;;;2.20;99.90;;;;;;6218773;23;20039;-88
2023/03/12 09:39:36;;;;;;;10.93;4.80;;;2.20;99.90;;;;;;6218693;23;20332;-91
2023/03/12 09:42:05;;;;;;;7.43;4.72;;;2.20;99.90;;;;;;6218849;23;20050;-90
2023/03/12 09:44:33;;;;;;;9.85;4.95;;;2.20;99.90;;;;;;6218528;23;20038;-91
2023/03/12 09:47:17;;;;;;;9.02;4.70;;;2.20;99.90;;;;;;6218869;23;20027;-88
2023/03/12 09:49:50;;;;;;;8.52;4.38;;;2.20;99.90;;;;;;6246911;23;20089;-92
2023/03/12 09:52:28;;;;;;;8.10;4.80;;;2.20;99.90;;;;;;6219999;23;20020;-89
2023/03/12 09:55:05;;;;;;;9.15;4.45;;;2.30;99.90;;;;;;6219650;23;20255;-89
2023/03/12 09:57:31;;;;;;;8.45;4.60;;;2.30;99.90;;;;;;6218622;23;20088;-90
2023/03/12 09:59:57;;;;;;;8.15;4.38;;;2.30;99.90;;;;;;6218636;23;20067;-90
2023/03/12 10:02:44;;;;;;;10.68;5.25;;;2.30;99.90;;;;;;6245967;23;20012;-91
2023/03/12 10:05:57;;;;;;;9.35;4.78;;;2.30;99.90;;;;;;6248158;23;20016;-90
2023/03/12 10:08:29;;;;;;;8.03;4.30;;;2.30;99.90;;;;;;6247355;23;20016;-90
2023/03/12 10:11:08;;;;;;;9.18;5.28;;;2.30;99.90;;;;;;6247542;23;20074;-90
2023/03/12 10:13:49;;;;;;;9.45;4.93;;;2.40;99.90;;;;;;6220879;23;20109;-91
2023/03/12 10:16:46;;;;;;;8.32;4.85;;;2.40;99.90;;;;;;6220591;23;20008;-90
2023/03/12 10:19:22;;;;;;;9.80;4.70;;;2.40;99.90;;;;;;6172670;23;20314;-90
2023/03/12 10:22:13;;;;;;;9.93;5.35;;;2.40;99.90;;;;;;6220833;23;20020;-91
2023/03/12 10:25:11;;;;;;;9.23;4.78;;;2.40;99.90;;;;;;6248255;23;20015;-92
2023/03/12 10:27:36;;;;;;;8.88;4.95;;;2.40;99.90;;;;;;6248104;23;20016;-89
2023/03/12 10:30:11;;;;;;;9.55;5.43;;;2.40;99.90;;;;;;6247851;23;20555;-88
2023/03/12 10:32:47;;;;;;;10.55;5.80;;;2.50;99.90;;;;;;6220923;23;20020;-90
2023/03/12 10:35:19;;;;;;;7.70;4.60;;;2.50;99.90;;;;;;6219546;23;20016;-90
2023/03/12 10:37:56;;;;;;;9.52;4.82;;;2.50;99.90;;;;;;6219052;23;20020;-87
2023/03/12 10:40:28;;;;;;;8.60;4.70;;;2.50;99.90;;;;;;6220096;23;20102;-88
2023/03/12 10:42:54;;;;;;;7.63;5.15;;;2.50;99.90;;;;;;6219138;23;20095;-88
2023/03/12 10:45:39;;;;;;;7.57;4.60;;;2.60;99.90;;;;;;6245717;23;20058;-88
2023/03/12 10:48:16;;;;;;;12.30;5.53;;;2.60;99.90;;;;;;6219973;23;20441;-88
2023/03/12 10:50:42;;;;;;;9.15;4.88;;;2.60;99.90;;;;;;6219104;23;20476;-89
2023/03/12 10:53:12;;;;;;;9.23;5.45;;;2.60;99.90;;;;;;6219450;23;20024;-87
2023/03/12 10:55:38;;;;;;;9.80;5.45;;;2.60;99.90;;;;;;6220453;23;20012;-94
2023/03/12 10:58:04;;;;;;;12.70;6.60;;;2.70;99.90;;;;;;6220824;23;20020;-90
2023/03/12 11:00:31;;;;;;;9.75;6.30;;;2.70;99.90;;;;;;6218978;23;20349;-91
2023/03/12 11:03:02;;;;;;;11.55;7.03;;;2.80;99.90;;;;;;6219379;23;20383;-89
2023/03/12 11:05:34;;;;;;;12.25;7.18;;;2.80;99.90;;;;;;6245931;23;20016;-89
2023/03/12 11:08:01;;;;;;;11.98;7.03;;;2.90;99.90;;;;;;6220297;23;20023;-89
2023/03/12 11:10:42;;;;;;;11.43;7.72;;;2.90;99.90;;;;;;6215467;23;20020;-89
2023/03/12 11:13:23;;;;;;;13.10;7.70;;;2.90;99.90;;;;;;6218859;23;20055;-89
2023/03/12 11:15:51;;;;;;;14.05;8.38;;;3.00;99.90;;;;;;6247725;23;20383;-88
2023/03/12 11:18:33;;;;;;;13.63;8.57;;;3.00;99.90;;;;;;6218207;23;20020;-88
2023/03/12 11:21:08;;;;;;;11.05;7.68;;;3.00;99.90;;;;;;6251959;23;20348;-90
2023/03/12 11:23:37;;;;;;;13.75;8.95;;;3.10;99.90;;;;;;6231612;23;20016;-90
2023/03/12 11:26:08;;;;;;;14.35;8.35;;;3.10;99.90;;;;;;6232134;23;20016;-90
2023/03/12 11:28:41;;;;;;;11.57;7.85;;;3.10;99.90;;;;;;6230175;23;20075;-90
2023/03/12 11:31:19;;;;;;;13.83;8.70;;;3.10;99.90;;;;;;6248695;23;20047;-89
2023/03/12 11:33:45;;;;;;;14.18;8.65;;;3.20;99.90;;;;;;6220843;23;20027;-90
2023/03/12 11:36:12;;;;;;;17.13;10.95;;;3.20;99.90;;;;;;6215246;23;20013;-88
2023/03/12 11:39:02;;;;;;;21.30;11.90;;;3.30;99.90;;;;;;6247811;23;20020;-88
2023/03/12 11:41:52;;;;;;;21.75;11.90;;;3.30;99.90;;;;;;6219948;23;20020;-88
2023/03/12 11:44:25;;;;;;;20.92;13.23;;;3.40;99.90;;;;;;6219426;23;20072;-87
2023/03/12 11:47:05;;;;;;;16.20;10.85;;;3.50;99.90;;;;;;6218355;23;20328;-88
2023/03/12 11:50:01;;;;;;;20.38;12.40;;;3.50;99.90;;;;;;6246144;23;20043;-90
2023/03/12 11:52:36;;;;;;;23.23;14.13;;;3.60;99.90;;;;;;6219293;23;20023;-89
2023/03/12 11:55:36;;;;;;;17.25;10.77;;;3.70;99.90;;;;;;6245978;23;20095;-93
2023/03/12 11:58:21;;;;;;;19.75;11.63;;;3.80;99.90;;;;;;6246617;23;20043;-88
2023/03/12 12:01:16;;;;;;;21.05;11.02;;;3.80;99.90;;;;;;6219668;23;20012;-87
2023/03/12 12:04:00;;;;;;;16.67;10.93;;;3.90;99.90;;;;;;6221061;23;20016;-88
2023/03/12 12:06:41;;;;;;;19.30;11.70;;;4.00;99.90;;;;;;6219665;23;20486;-88
2023/03/12 12:09:31;;;;;;;18.67;11.13;;;4.00;99.90;;;;;;6220707;23;20043;-86
2023/03/12 12:12:21;;;;;;;25.48;14.60;;;4.10;99.90;;;;;;6247887;23;20020;-87
2023/03/12 12:15:14;;;;;;;22.02;13.88;;;4.20;99.90;;;;;;6220750;23;20314;-87
2023/03/12 12:18:09;;;;;;;23.23;12.65;;;4.20;99.90;;;;;;6219455;23;20074;-87
2023/03/12 12:20:54;;;;;;;20.25;13.55;;;4.30;99.90;;;;;;6221027;23;20012;-87
2023/03/12 12:23:47;;;;;;;21.08;12.85;;;4.30;99.90;;;;;;6218698;23;20023;-87
2023/03/12 12:26:36;;;;;;;23.17;14.73;;;4.40;99.90;;;;;;6218905;23;20472;-87
2023/03/12 12:29:33;;;;;;;28.27;16.33;;;4.50;99.90;;;;;;6219201;23;20031;-87
2023/03/12 12:32:01;;;;;;;22.08;13.43;;;4.50;99.90;;;;;;6247347;23;20026;-88
2023/03/12 12:34:32;;;;;;;22.08;14.32;;;4.60;99.90;;;;;;6219461;23;20012;-87
2023/03/12 12:37:28;;;;;;;23.63;13.90;;;4.70;99.90;;;;;;6218864;23;20015;-88
2023/03/12 12:40:31;;;;;;;34.53;17.15;;;4.80;99.90;;;;;;6246870;23;20036;-86
2023/03/12 12:43:00;;;;;;;27.25;14.80;;;4.80;99.90;;;;;;6219098;23;20019;-87
2023/03/12 12:45:27;;;;;;;23.70;13.40;;;4.90;99.90;;;;;;6220596;23;20016;-87
2023/03/12 12:48:10;;;;;;;28.05;15.13;;;5.00;99.90;;;;;;6221039;23;20057;-88
2023/03/12 12:50:38;;;;;;;23.73;13.68;;;5.00;99.90;;;;;;6219716;23;20020;-87
2023/03/12 12:53:15;;;;;;;34.85;18.33;;;5.10;99.90;;;;;;6220207;23;20051;-88
2023/03/12 12:56:10;;;;;;;31.95;17.60;;;5.20;99.90;;;;;;6221266;23;20095;-88
2023/03/12 12:58:48;;;;;;;33.10;18.70;;;5.20;99.90;;;;;;6219852;23;20016;-87
2023/03/12 13:01:15;;;;;;;19.92;12.68;;;5.30;99.90;;;;;;6220105;23;20376;-88
2023/03/12 13:03:42;;;;;;;25.73;15.35;;;5.40;99.90;;;;;;6246984;23;20401;-88
2023/03/12 13:06:07;;;;;;;25.10;13.85;;;5.40;99.90;;;;;;6248429;23;20018;-88